sensor_id;sensor_type;location;lat;lon;timestamp;P1;durP1;ratioP1;P2;durP2;ratioP2
51618;SDS011;38518;53.164;5.430;2023-04-25T05:56:10;8.77;;;2.33;;
51618;SDS011;38518;53.164;5.430;2023-04-25T05:59:06;8.32;;;2.20;;
51618;SDS011;38518;53.164;5.430;2023-04-25T06:01:32;13.07;;;2.47;;
51618;SDS011;38518;53.164;5.430;2023-04-25T06:04:22;6.20;;;2.25;;
51618;SDS011;38518;53.164;5.430;2023-04-25T06:06:51;11.35;;;2.83;;
51618;SDS011;38518;53.164;5.430;2023-04-25T06:09:56;7.65;;;2.15;;
51618;SDS011;38518;53.164;5.430;2023-04-25T06:16:38;5.65;;;1.48;;
51618;SDS011;38518;53.164;5.430;2023-04-25T06:19:10;5.45;;;1.30;;
51618;SDS011;38518;53.164;5.430;2023-04-25T06:21:36;7.72;;;1.77;;
51618;SDS011;38518;53.164;5.430;2023-04-25T06:24:01;11.57;;;2.35;;
51618;SDS011;38518;53.164;5.430;2023-04-25T06:29:24;9.07;;;2.22;;
51618;SDS011;38518;53.164;5.430;2023-04-25T06:40:04;9.73;;;2.65;;
51618;SDS011;38518;53.164;5.430;2023-04-25T06:42:36;8.43;;;2.72;;
51618;SDS011;38518;53.164;5.430;2023-04-25T06:45:26;10.73;;;2.58;;
51618;SDS011;38518;53.164;5.430;2023-04-25T06:48:02;12.27;;;2.53;;
51618;SDS011;38518;53.164;5.430;2023-04-25T06:53:50;12.38;;;2.60;;
51618;SDS011;38518;53.164;5.430;2023-04-25T07:00:52;11.10;;;2.97;;
51618;SDS011;38518;53.164;5.430;2023-04-25T07:03:34;10.57;;;2.67;;
51618;SDS011;38518;53.164;5.430;2023-04-25T07:05:59;11.93;;;2.78;;
51618;SDS011;38518;53.164;5.430;2023-04-25T07:08:25;10.38;;;2.88;;
51618;SDS011;38518;53.164;5.430;2023-04-25T07:10:54;11.40;;;3.08;;
51618;SDS011;38518;53.164;5.430;2023-04-25T07:13:23;9.85;;;2.47;;
51618;SDS011;38518;53.164;5.430;2023-04-25T07:15:52;9.38;;;2.83;;
51618;SDS011;38518;53.164;5.430;2023-04-25T07:18:18;7.20;;;2.22;;
51618;SDS011;38518;53.164;5.430;2023-04-25T07:20:52;7.88;;;2.28;;
51618;SDS011;38518;53.164;5.430;2023-04-25T07:23:17;7.47;;;2.10;;
51618;SDS011;38518;53.164;5.430;2023-04-25T07:26:09;5.55;;;1.80;;
51618;SDS011;38518;53.164;5.430;2023-04-25T07:28:35;6.68;;;2.00;;
51618;SDS011;38518;53.164;5.430;2023-04-25T07:31:04;6.95;;;2.10;;
51618;SDS011;38518;53.164;5.430;2023-04-25T07:33:30;5.70;;;1.58;;
51618;SDS011;38518;53.164;5.430;2023-04-25T07:39:12;5.47;;;1.48;;
51618;SDS011;38518;53.164;5.430;2023-04-25T07:41:46;4.60;;;1.55;;
51618;SDS011;38518;53.164;5.430;2023-04-25T07:47:31;7.55;;;1.90;;
51618;SDS011;38518;53.164;5.430;2023-04-25T07:50:00;8.60;;;1.85;;
51618;SDS011;38518;53.164;5.430;2023-04-25T07:52:30;6.63;;;1.92;;
51618;SDS011;38518;53.164;5.430;2023-04-25T07:57:49;7.85;;;2.10;;
51618;SDS011;38518;53.164;5.430;2023-04-25T08:00:18;8.27;;;2.55;;
51618;SDS011;38518;53.164;5.430;2023-04-25T08:03:32;7.10;;;2.30;;
51618;SDS011;38518;53.164;5.430;2023-04-25T08:09:26;7.38;;;2.20;;
51618;SDS011;38518;53.164;5.430;2023-04-25T08:12:02;9.98;;;2.25;;
51618;SDS011;38518;53.164;5.430;2023-04-25T08:14:48;7.85;;;2.10;;
51618;SDS011;38518;53.164;5.430;2023-04-25T08:20:54;8.27;;;2.30;;
51618;SDS011;38518;53.164;5.430;2023-04-25T08:23:23;9.88;;;2.20;;
51618;SDS011;38518;53.164;5.430;2023-04-25T08:25:49;9.82;;;2.22;;
51618;SDS011;38518;53.164;5.430;2023-04-25T08:28:15;8.60;;;2.25;;
51618;SDS011;38518;53.164;5.430;2023-04-25T08:30:43;7.15;;;2.30;;
51618;SDS011;38518;53.164;5.430;2023-04-25T08:33:09;8.40;;;2.33;;
51618;SDS011;38518;53.164;5.430;2023-04-25T08:35:35;9.23;;;2.58;;
51618;SDS011;38518;53.164;5.430;2023-04-25T08:38:01;10.57;;;2.40;;
51618;SDS011;38518;53.164;5.430;2023-04-25T08:40:27;11.20;;;2.60;;
51618;SDS011;38518;53.164;5.430;2023-04-25T08:42:57;9.35;;;2.13;;
51618;SDS011;38518;53.164;5.430;2023-04-25T08:45:25;6.78;;;2.00;;
51618;SDS011;38518;53.164;5.430;2023-04-25T08:47:53;8.48;;;2.30;;
51618;SDS011;38518;53.164;5.430;2023-04-25T08:50:22;8.57;;;2.60;;
51618;SDS011;38518;53.164;5.430;2023-04-25T08:52:50;11.98;;;2.55;;
51618;SDS011;38518;53.164;5.430;2023-04-25T08:55:21;10.60;;;2.70;;
51618;SDS011;38518;53.164;5.430;2023-04-25T08:57:47;10.18;;;2.53;;
51618;SDS011;38518;53.164;5.430;2023-04-25T09:00:13;14.18;;;3.28;;
51618;SDS011;38518;53.164;5.430;2023-04-25T09:02:39;8.43;;;2.20;;
51618;SDS011;38518;53.164;5.430;2023-04-25T09:05:07;7.80;;;2.08;;
51618;SDS011;38518;53.164;5.430;2023-04-25T09:07:34;5.75;;;1.90;;
51618;SDS011;38518;53.164;5.430;2023-04-25T09:10:00;8.15;;;2.15;;
51618;SDS011;38518;53.164;5.430;2023-04-25T09:12:28;7.07;;;2.00;;
51618;SDS011;38518;53.164;5.430;2023-04-25T09:15:29;7.22;;;1.90;;
51618;SDS011;38518;53.164;5.430;2023-04-25T09:17:54;6.03;;;2.15;;
51618;SDS011;38518;53.164;5.430;2023-04-25T09:20:21;6.40;;;2.10;;
51618;SDS011;38518;53.164;5.430;2023-04-25T09:22:46;3.50;;;1.45;;
51618;SDS011;38518;53.164;5.430;2023-04-25T09:25:26;6.43;;;1.77;;
51618;SDS011;38518;53.164;5.430;2023-04-25T09:27:52;5.50;;;1.95;;
51618;SDS011;38518;53.164;5.430;2023-04-25T09:30:31;8.27;;;2.55;;
51618;SDS011;38518;53.164;5.430;2023-04-25T09:33:08;6.88;;;1.98;;
51618;SDS011;38518;53.164;5.430;2023-04-25T09:35:40;6.15;;;2.03;;
51618;SDS011;38518;53.164;5.430;2023-04-25T09:38:08;10.73;;;2.20;;
51618;SDS011;38518;53.164;5.430;2023-04-25T09:40:42;9.88;;;2.10;;
51618;SDS011;38518;53.164;5.430;2023-04-25T09:45:48;8.18;;;2.30;;
51618;SDS011;38518;53.164;5.430;2023-04-25T09:48:21;10.57;;;2.10;;
51618;SDS011;38518;53.164;5.430;2023-04-25T09:53:35;8.18;;;2.05;;
51618;SDS011;38518;53.164;5.430;2023-04-25T09:56:05;7.38;;;2.00;;
51618;SDS011;38518;53.164;5.430;2023-04-25T09:58:34;8.15;;;2.33;;
51618;SDS011;38518;53.164;5.430;2023-04-25T10:01:06;8.23;;;2.00;;
51618;SDS011;38518;53.164;5.430;2023-04-25T10:03:34;5.93;;;2.42;;
51618;SDS011;38518;53.164;5.430;2023-04-25T10:06:02;9.15;;;2.17;;
51618;SDS011;38518;53.164;5.430;2023-04-25T10:08:35;9.57;;;2.92;;
51618;SDS011;38518;53.164;5.430;2023-04-25T10:11:03;10.18;;;2.25;;
51618;SDS011;38518;53.164;5.430;2023-04-25T10:13:30;9.20;;;2.10;;
51618;SDS011;38518;53.164;5.430;2023-04-25T10:15:57;8.40;;;1.90;;
51618;SDS011;38518;53.164;5.430;2023-04-25T10:18:25;7.35;;;2.08;;
51618;SDS011;38518;53.164;5.430;2023-04-25T10:20:53;5.35;;;1.85;;
51618;SDS011;38518;53.164;5.430;2023-04-25T10:23:30;8.13;;;2.13;;
51618;SDS011;38518;53.164;5.430;2023-04-25T10:25:57;4.40;;;1.55;;
51618;SDS011;38518;53.164;5.430;2023-04-25T10:28:23;6.00;;;2.20;;
51618;SDS011;38518;53.164;5.430;2023-04-25T10:31:00;6.80;;;2.10;;
51618;SDS011;38518;53.164;5.430;2023-04-25T10:33:39;7.13;;;1.95;;
51618;SDS011;38518;53.164;5.430;2023-04-25T10:38:40;6.97;;;2.40;;
51618;SDS011;38518;53.164;5.430;2023-04-25T10:41:08;8.23;;;2.65;;
51618;SDS011;38518;53.164;5.430;2023-04-25T10:43:44;8.63;;;3.05;;
51618;SDS011;38518;53.164;5.430;2023-04-25T10:46:18;8.30;;;2.00;;
51618;SDS011;38518;53.164;5.430;2023-04-25T10:48:48;7.57;;;2.20;;
51618;SDS011;38518;53.164;5.430;2023-04-25T10:51:22;6.75;;;2.00;;
51618;SDS011;38518;53.164;5.430;2023-04-25T10:54:04;5.18;;;1.70;;
51618;SDS011;38518;53.164;5.430;2023-04-25T10:56:33;5.70;;;1.70;;
51618;SDS011;38518;53.164;5.430;2023-04-25T10:59:09;7.07;;;1.92;;
51618;SDS011;38518;53.164;5.430;2023-04-25T11:01:41;6.05;;;1.88;;
51618;SDS011;38518;53.164;5.430;2023-04-25T11:04:21;4.70;;;1.77;;
51618;SDS011;38518;53.164;5.430;2023-04-25T11:07:06;3.83;;;1.60;;
51618;SDS011;38518;53.164;5.430;2023-04-25T11:09:45;6.53;;;2.15;;
51618;SDS011;38518;53.164;5.430;2023-04-25T11:12:11;8.25;;;2.05;;
51618;SDS011;38518;53.164;5.430;2023-04-25T11:14:38;6.32;;;1.90;;
51618;SDS011;38518;53.164;5.430;2023-04-25T11:17:04;8.60;;;2.15;;
51618;SDS011;38518;53.164;5.430;2023-04-25T11:19:31;8.93;;;2.45;;
51618;SDS011;38518;53.164;5.430;2023-04-25T11:21:58;8.07;;;2.20;;
51618;SDS011;38518;53.164;5.430;2023-04-25T11:24:29;6.30;;;2.05;;
51618;SDS011;38518;53.164;5.430;2023-04-25T11:26:57;6.78;;;1.92;;
51618;SDS011;38518;53.164;5.430;2023-04-25T11:29:31;6.38;;;1.98;;
51618;SDS011;38518;53.164;5.430;2023-04-25T11:31:57;5.35;;;1.75;;
51618;SDS011;38518;53.164;5.430;2023-04-25T11:34:25;5.53;;;2.08;;
51618;SDS011;38518;53.164;5.430;2023-04-25T11:36:51;6.95;;;1.60;;
51618;SDS011;38518;53.164;5.430;2023-04-25T11:39:21;6.20;;;1.70;;
51618;SDS011;38518;53.164;5.430;2023-04-25T11:41:48;7.15;;;2.65;;
51618;SDS011;38518;53.164;5.430;2023-04-25T11:44:16;6.15;;;2.13;;
51618;SDS011;38518;53.164;5.430;2023-04-25T11:46:43;13.15;;;2.92;;
51618;SDS011;38518;53.164;5.430;2023-04-25T11:49:10;7.85;;;2.25;;
51618;SDS011;38518;53.164;5.430;2023-04-25T11:51:39;4.22;;;1.60;;
51618;SDS011;38518;53.164;5.430;2023-04-25T11:54:06;7.75;;;1.52;;
51618;SDS011;38518;53.164;5.430;2023-04-25T11:56:32;4.38;;;1.30;;
51618;SDS011;38518;53.164;5.430;2023-04-25T11:58:58;3.13;;;1.30;;
51618;SDS011;38518;53.164;5.430;2023-04-25T12:01:29;5.35;;;1.45;;
51618;SDS011;38518;53.164;5.430;2023-04-25T12:03:57;4.00;;;1.52;;
51618;SDS011;38518;53.164;5.430;2023-04-25T12:06:29;7.70;;;2.22;;
51618;SDS011;38518;53.164;5.430;2023-04-25T12:09:02;5.93;;;1.73;;
51618;SDS011;38518;53.164;5.430;2023-04-25T12:11:32;7.20;;;1.88;;
51618;SDS011;38518;53.164;5.430;2023-04-25T12:14:05;9.20;;;2.60;;
51618;SDS011;38518;53.164;5.430;2023-04-25T12:16:44;5.72;;;2.05;;
51618;SDS011;38518;53.164;5.430;2023-04-25T12:19:14;6.55;;;1.95;;
51618;SDS011;38518;53.164;5.430;2023-04-25T12:21:42;7.60;;;2.35;;
51618;SDS011;38518;53.164;5.430;2023-04-25T12:29:24;8.10;;;2.38;;
51618;SDS011;38518;53.164;5.430;2023-04-25T12:31:52;9.85;;;2.42;;
51618;SDS011;38518;53.164;5.430;2023-04-25T12:34:22;7.03;;;1.95;;
51618;SDS011;38518;53.164;5.430;2023-04-25T12:36:48;7.72;;;1.85;;
51618;SDS011;38518;53.164;5.430;2023-04-25T12:39:21;4.90;;;1.60;;
51618;SDS011;38518;53.164;5.430;2023-04-25T12:41:48;4.72;;;1.73;;
51618;SDS011;38518;53.164;5.430;2023-04-25T12:44:15;5.78;;;1.55;;
51618;SDS011;38518;53.164;5.430;2023-04-25T12:46:42;5.90;;;2.00;;
51618;SDS011;38518;53.164;5.430;2023-04-25T12:49:08;8.80;;;2.10;;
51618;SDS011;38518;53.164;5.430;2023-04-25T12:51:34;8.00;;;2.30;;
51618;SDS011;38518;53.164;5.430;2023-04-25T12:54:06;9.15;;;2.10;;
51618;SDS011;38518;53.164;5.430;2023-04-25T12:56:33;9.73;;;2.63;;
51618;SDS011;38518;53.164;5.430;2023-04-25T12:59:03;7.47;;;2.30;;
51618;SDS011;38518;53.164;5.430;2023-04-25T13:01:29;7.88;;;1.90;;
51618;SDS011;38518;53.164;5.430;2023-04-25T13:03:55;7.35;;;2.30;;
51618;SDS011;38518;53.164;5.430;2023-04-25T13:06:21;10.32;;;2.30;;
51618;SDS011;38518;53.164;5.430;2023-04-25T13:08:47;7.18;;;2.22;;
51618;SDS011;38518;53.164;5.430;2023-04-25T13:11:13;8.50;;;2.28;;
51618;SDS011;38518;53.164;5.430;2023-04-25T13:13:42;10.25;;;1.90;;
51618;SDS011;38518;53.164;5.430;2023-04-25T13:16:09;9.57;;;2.45;;
51618;SDS011;38518;53.164;5.430;2023-04-25T13:18:35;4.88;;;1.83;;
51618;SDS011;38518;53.164;5.430;2023-04-25T13:21:05;6.60;;;1.75;;
51618;SDS011;38518;53.164;5.430;2023-04-25T13:23:30;6.15;;;1.70;;
51618;SDS011;38518;53.164;5.430;2023-04-25T13:25:56;6.57;;;2.00;;
51618;SDS011;38518;53.164;5.430;2023-04-25T13:28:23;4.82;;;1.67;;
51618;SDS011;38518;53.164;5.430;2023-04-25T13:30:50;7.20;;;2.05;;
51618;SDS011;38518;53.164;5.430;2023-04-25T13:33:16;6.22;;;1.80;;
51618;SDS011;38518;53.164;5.430;2023-04-25T13:35:44;7.75;;;2.13;;
51618;SDS011;38518;53.164;5.430;2023-04-25T13:38:21;8.52;;;2.30;;
51618;SDS011;38518;53.164;5.430;2023-04-25T13:40:47;8.52;;;2.47;;
51618;SDS011;38518;53.164;5.430;2023-04-25T13:43:14;3.75;;;1.63;;
51618;SDS011;38518;53.164;5.430;2023-04-25T13:45:40;2.85;;;1.30;;
51618;SDS011;38518;53.164;5.430;2023-04-25T13:48:08;5.75;;;1.70;;
51618;SDS011;38518;53.164;5.430;2023-04-25T13:50:34;5.13;;;1.80;;
51618;SDS011;38518;53.164;5.430;2023-04-25T13:53:03;6.18;;;1.65;;
51618;SDS011;38518;53.164;5.430;2023-04-25T13:55:28;5.47;;;1.50;;
51618;SDS011;38518;53.164;5.430;2023-04-25T13:57:55;3.10;;;1.55;;
51618;SDS011;38518;53.164;5.430;2023-04-25T14:00:20;6.38;;;1.70;;
51618;SDS011;38518;53.164;5.430;2023-04-25T14:02:46;4.53;;;1.30;;
51618;SDS011;38518;53.164;5.430;2023-04-25T14:05:12;4.40;;;1.40;;
51618;SDS011;38518;53.164;5.430;2023-04-25T14:07:38;3.70;;;1.60;;
51618;SDS011;38518;53.164;5.430;2023-04-25T14:10:04;7.53;;;2.10;;
51618;SDS011;38518;53.164;5.430;2023-04-25T14:12:31;6.90;;;2.10;;
51618;SDS011;38518;53.164;5.430;2023-04-25T14:14:58;7.25;;;2.25;;
51618;SDS011;38518;53.164;5.430;2023-04-25T14:17:26;5.80;;;2.55;;
51618;SDS011;38518;53.164;5.430;2023-04-25T14:19:52;5.30;;;1.85;;
51618;SDS011;38518;53.164;5.430;2023-04-25T14:22:21;5.65;;;1.88;;
51618;SDS011;38518;53.164;5.430;2023-04-25T14:24:46;6.18;;;2.20;;
51618;SDS011;38518;53.164;5.430;2023-04-25T14:27:13;6.95;;;1.90;;
51618;SDS011;38518;53.164;5.430;2023-04-25T14:29:38;7.15;;;2.13;;
51618;SDS011;38518;53.164;5.430;2023-04-25T14:32:05;6.10;;;2.20;;
51618;SDS011;38518;53.164;5.430;2023-04-25T14:34:31;7.30;;;2.55;;
51618;SDS011;38518;53.164;5.430;2023-04-25T14:36:57;7.15;;;2.70;;
51618;SDS011;38518;53.164;5.430;2023-04-25T14:39:23;10.90;;;3.65;;
51618;SDS011;38518;53.164;5.430;2023-04-25T14:41:59;12.98;;;2.97;;
51618;SDS011;38518;53.164;5.430;2023-04-25T14:44:28;9.77;;;3.63;;
51618;SDS011;38518;53.164;5.430;2023-04-25T14:46:53;13.98;;;3.17;;
51618;SDS011;38518;53.164;5.430;2023-04-25T14:49:19;7.40;;;2.70;;
51618;SDS011;38518;53.164;5.430;2023-04-25T14:51:45;5.18;;;2.33;;
51618;SDS011;38518;53.164;5.430;2023-04-25T14:54:11;7.82;;;2.88;;
51618;SDS011;38518;53.164;5.430;2023-04-25T14:56:39;9.02;;;2.50;;
51618;SDS011;38518;53.164;5.430;2023-04-25T14:59:10;7.80;;;2.08;;
51618;SDS011;38518;53.164;5.430;2023-04-25T15:01:36;7.07;;;2.20;;
51618;SDS011;38518;53.164;5.430;2023-04-25T15:04:02;7.10;;;2.30;;
51618;SDS011;38518;53.164;5.430;2023-04-25T15:06:28;8.50;;;2.40;;
51618;SDS011;38518;53.164;5.430;2023-04-25T15:08:55;9.70;;;2.30;;
51618;SDS011;38518;53.164;5.430;2023-04-25T15:11:22;8.70;;;2.45;;
51618;SDS011;38518;53.164;5.430;2023-04-25T15:13:48;6.82;;;2.13;;
51618;SDS011;38518;53.164;5.430;2023-04-25T15:16:16;7.00;;;2.45;;
51618;SDS011;38518;53.164;5.430;2023-04-25T15:18:48;7.47;;;2.10;;
51618;SDS011;38518;53.164;5.430;2023-04-25T15:21:19;9.00;;;2.80;;
51618;SDS011;38518;53.164;5.430;2023-04-25T15:23:53;8.35;;;2.50;;
51618;SDS011;38518;53.164;5.430;2023-04-25T15:26:22;6.82;;;2.25;;
51618;SDS011;38518;53.164;5.430;2023-04-25T15:28:51;7.90;;;2.03;;
51618;SDS011;38518;53.164;5.430;2023-04-25T15:31:17;6.68;;;2.15;;
51618;SDS011;38518;53.164;5.430;2023-04-25T15:33:43;7.18;;;2.33;;
51618;SDS011;38518;53.164;5.430;2023-04-25T15:36:09;6.85;;;2.10;;
51618;SDS011;38518;53.164;5.430;2023-04-25T15:38:35;7.38;;;2.25;;
51618;SDS011;38518;53.164;5.430;2023-04-25T15:41:01;8.38;;;2.38;;
51618;SDS011;38518;53.164;5.430;2023-04-25T15:43:27;8.02;;;2.10;;
51618;SDS011;38518;53.164;5.430;2023-04-25T15:45:53;7.60;;;2.20;;
51618;SDS011;38518;53.164;5.430;2023-04-25T15:48:22;8.20;;;2.40;;
51618;SDS011;38518;53.164;5.430;2023-04-25T15:50:51;9.13;;;2.47;;
51618;SDS011;38518;53.164;5.430;2023-04-25T15:53:17;12.80;;;2.63;;
51618;SDS011;38518;53.164;5.430;2023-04-25T15:55:42;6.85;;;2.80;;
51618;SDS011;38518;53.164;5.430;2023-04-25T15:58:11;9.43;;;2.20;;
51618;SDS011;38518;53.164;5.430;2023-04-25T16:00:37;8.77;;;2.13;;
51618;SDS011;38518;53.164;5.430;2023-04-25T16:03:03;12.52;;;2.70;;
51618;SDS011;38518;53.164;5.430;2023-04-25T16:05:30;11.55;;;2.83;;
51618;SDS011;38518;53.164;5.430;2023-04-25T16:08:01;8.05;;;2.88;;
51618;SDS011;38518;53.164;5.430;2023-04-25T16:10:28;7.63;;;2.53;;
51618;SDS011;38518;53.164;5.430;2023-04-25T16:12:54;8.77;;;2.45;;
51618;SDS011;38518;53.164;5.430;2023-04-25T16:15:20;7.43;;;2.30;;
51618;SDS011;38518;53.164;5.430;2023-04-25T16:17:46;10.35;;;2.90;;
51618;SDS011;38518;53.164;5.430;2023-04-25T16:20:11;6.68;;;3.10;;
51618;SDS011;38518;53.164;5.430;2023-04-25T16:22:39;9.18;;;2.88;;
51618;SDS011;38518;53.164;5.430;2023-04-25T16:25:09;12.00;;;3.13;;
51618;SDS011;38518;53.164;5.430;2023-04-25T16:27:41;11.48;;;3.47;;
51618;SDS011;38518;53.164;5.430;2023-04-25T16:30:07;8.95;;;2.78;;
51618;SDS011;38518;53.164;5.430;2023-04-25T16:32:38;11.00;;;3.38;;
51618;SDS011;38518;53.164;5.430;2023-04-25T16:35:07;10.02;;;2.72;;
51618;SDS011;38518;53.164;5.430;2023-04-25T16:37:33;8.82;;;2.75;;
51618;SDS011;38518;53.164;5.430;2023-04-25T16:39:59;9.85;;;3.00;;
51618;SDS011;38518;53.164;5.430;2023-04-25T16:42:25;10.23;;;3.85;;
51618;SDS011;38518;53.164;5.430;2023-04-25T16:44:51;9.20;;;3.50;;
51618;SDS011;38518;53.164;5.430;2023-04-25T16:47:17;12.50;;;3.60;;
51618;SDS011;38518;53.164;5.430;2023-04-25T16:49:46;8.02;;;2.88;;
51618;SDS011;38518;53.164;5.430;2023-04-25T16:52:14;9.15;;;2.63;;
51618;SDS011;38518;53.164;5.430;2023-04-25T16:54:48;8.32;;;2.05;;
51618;SDS011;38518;53.164;5.430;2023-04-25T16:57:14;10.90;;;2.50;;
51618;SDS011;38518;53.164;5.430;2023-04-25T16:59:40;13.38;;;2.40;;
51618;SDS011;38518;53.164;5.430;2023-04-25T17:02:07;11.05;;;2.85;;
51618;SDS011;38518;53.164;5.430;2023-04-25T17:04:36;9.93;;;3.45;;
51618;SDS011;38518;53.164;5.430;2023-04-25T17:07:02;8.57;;;3.22;;
51618;SDS011;38518;53.164;5.430;2023-04-25T17:09:28;8.20;;;2.30;;
51618;SDS011;38518;53.164;5.430;2023-04-25T17:11:54;8.80;;;2.38;;
51618;SDS011;38518;53.164;5.430;2023-04-25T17:14:22;6.63;;;2.17;;
51618;SDS011;38518;53.164;5.430;2023-04-25T17:16:48;10.25;;;3.17;;
51618;SDS011;38518;53.164;5.430;2023-04-25T17:19:14;8.98;;;2.80;;
51618;SDS011;38518;53.164;5.430;2023-04-25T17:21:48;9.43;;;2.72;;
51618;SDS011;38518;53.164;5.430;2023-04-25T17:24:14;7.82;;;2.10;;
51618;SDS011;38518;53.164;5.430;2023-04-25T17:26:42;7.72;;;2.53;;
51618;SDS011;38518;53.164;5.430;2023-04-25T17:29:08;7.10;;;2.13;;
51618;SDS011;38518;53.164;5.430;2023-04-25T17:31:33;7.72;;;1.88;;
51618;SDS011;38518;53.164;5.430;2023-04-25T17:34:00;14.32;;;3.50;;
51618;SDS011;38518;53.164;5.430;2023-04-25T17:36:26;8.63;;;2.50;;
51618;SDS011;38518;53.164;5.430;2023-04-25T17:38:52;7.80;;;2.25;;
51618;SDS011;38518;53.164;5.430;2023-04-25T17:41:17;9.65;;;2.35;;
51618;SDS011;38518;53.164;5.430;2023-04-25T17:43:44;9.52;;;2.92;;
51618;SDS011;38518;53.164;5.430;2023-04-25T17:46:11;9.20;;;2.58;;
51618;SDS011;38518;53.164;5.430;2023-04-25T17:48:39;7.97;;;1.95;;
51618;SDS011;38518;53.164;5.430;2023-04-25T17:51:05;6.10;;;1.60;;
51618;SDS011;38518;53.164;5.430;2023-04-25T17:53:31;5.47;;;1.90;;
51618;SDS011;38518;53.164;5.430;2023-04-25T17:55:57;4.35;;;1.80;;
51618;SDS011;38518;53.164;5.430;2023-04-25T17:58:23;9.10;;;2.15;;
51618;SDS011;38518;53.164;5.430;2023-04-25T18:00:49;5.75;;;1.85;;
51618;SDS011;38518;53.164;5.430;2023-04-25T18:03:15;8.65;;;2.30;;
51618;SDS011;38518;53.164;5.430;2023-04-25T18:05:41;7.47;;;2.63;;
51618;SDS011;38518;53.164;5.430;2023-04-25T18:08:07;8.05;;;2.55;;
51618;SDS011;38518;53.164;5.430;2023-04-25T18:10:33;9.10;;;2.10;;
51618;SDS011;38518;53.164;5.430;2023-04-25T18:12:59;7.68;;;2.60;;
51618;SDS011;38518;53.164;5.430;2023-04-25T18:15:25;8.38;;;2.50;;
51618;SDS011;38518;53.164;5.430;2023-04-25T18:17:53;11.00;;;2.45;;
51618;SDS011;38518;53.164;5.430;2023-04-25T18:20:21;9.73;;;2.70;;
51618;SDS011;38518;53.164;5.430;2023-04-25T18:22:51;11.75;;;2.88;;
51618;SDS011;38518;53.164;5.430;2023-04-25T18:25:17;10.45;;;2.70;;
51618;SDS011;38518;53.164;5.430;2023-04-25T18:27:42;9.68;;;2.30;;
51618;SDS011;38518;53.164;5.430;2023-04-25T18:30:09;10.85;;;2.42;;
51618;SDS011;38518;53.164;5.430;2023-04-25T18:32:37;10.90;;;3.08;;
51618;SDS011;38518;53.164;5.430;2023-04-25T18:35:03;9.65;;;2.80;;
51618;SDS011;38518;53.164;5.430;2023-04-25T18:37:29;8.82;;;2.47;;
51618;SDS011;38518;53.164;5.430;2023-04-25T18:39:54;11.05;;;2.85;;
51618;SDS011;38518;53.164;5.430;2023-04-25T18:42:23;10.93;;;2.75;;
51618;SDS011;38518;53.164;5.430;2023-04-25T18:44:49;7.50;;;3.13;;
51618;SDS011;38518;53.164;5.430;2023-04-25T18:47:17;8.50;;;2.70;;
51618;SDS011;38518;53.164;5.430;2023-04-25T18:49:44;8.73;;;3.65;;
51618;SDS011;38518;53.164;5.430;2023-04-25T18:55:18;14.75;;;4.30;;
51618;SDS011;38518;53.164;5.430;2023-04-25T18:57:47;13.90;;;4.75;;
51618;SDS011;38518;53.164;5.430;2023-04-25T19:00:13;14.25;;;4.82;;
51618;SDS011;38518;53.164;5.430;2023-04-25T19:06:04;12.70;;;4.80;;
51618;SDS011;38518;53.164;5.430;2023-04-25T19:08:34;10.38;;;3.05;;
51618;SDS011;38518;53.164;5.430;2023-04-25T19:17:46;8.65;;;2.08;;
51618;SDS011;38518;53.164;5.430;2023-04-25T19:20:45;6.78;;;2.20;;
51618;SDS011;38518;53.164;5.430;2023-04-25T19:23:11;12.18;;;3.75;;
51618;SDS011;38518;53.164;5.430;2023-04-25T19:25:37;10.18;;;3.28;;
51618;SDS011;38518;53.164;5.430;2023-04-25T19:28:03;11.43;;;3.30;;
51618;SDS011;38518;53.164;5.430;2023-04-25T19:30:31;11.70;;;2.88;;
51618;SDS011;38518;53.164;5.430;2023-04-25T19:32:57;10.77;;;3.13;;
51618;SDS011;38518;53.164;5.430;2023-04-25T19:35:27;6.78;;;2.22;;
51618;SDS011;38518;53.164;5.430;2023-04-25T19:38:02;6.90;;;2.50;;
51618;SDS011;38518;53.164;5.430;2023-04-25T19:40:50;8.10;;;2.10;;
51618;SDS011;38518;53.164;5.430;2023-04-25T19:43:16;8.20;;;2.33;;
51618;SDS011;38518;53.164;5.430;2023-04-25T19:45:42;6.38;;;2.40;;
51618;SDS011;38518;53.164;5.430;2023-04-25T19:48:10;8.18;;;2.42;;
51618;SDS011;38518;53.164;5.430;2023-04-25T19:50:58;7.28;;;2.45;;
51618;SDS011;38518;53.164;5.430;2023-04-25T19:53:31;8.30;;;2.35;;
51618;SDS011;38518;53.164;5.430;2023-04-25T19:56:13;8.13;;;2.70;;
51618;SDS011;38518;53.164;5.430;2023-04-25T19:58:39;7.60;;;2.40;;
51618;SDS011;38518;53.164;5.430;2023-04-25T20:01:05;7.93;;;2.42;;
51618;SDS011;38518;53.164;5.430;2023-04-25T20:03:31;9.27;;;2.92;;
51618;SDS011;38518;53.164;5.430;2023-04-25T20:05:57;10.10;;;3.08;;
51618;SDS011;38518;53.164;5.430;2023-04-25T20:08:26;7.45;;;2.22;;
51618;SDS011;38518;53.164;5.430;2023-04-25T20:11:05;7.05;;;2.17;;
51618;SDS011;38518;53.164;5.430;2023-04-25T20:13:31;8.43;;;2.75;;
51618;SDS011;38518;53.164;5.430;2023-04-25T20:15:57;7.95;;;3.13;;
51618;SDS011;38518;53.164;5.430;2023-04-25T20:18:26;5.75;;;1.88;;
51618;SDS011;38518;53.164;5.430;2023-04-25T20:20:52;7.50;;;2.22;;
51618;SDS011;38518;53.164;5.430;2023-04-25T20:23:18;9.95;;;2.72;;
51618;SDS011;38518;53.164;5.430;2023-04-25T20:25:46;6.38;;;2.28;;
51618;SDS011;38518;53.164;5.430;2023-04-25T20:28:12;7.10;;;2.15;;
51618;SDS011;38518;53.164;5.430;2023-04-25T20:30:37;5.75;;;2.28;;
51618;SDS011;38518;53.164;5.430;2023-04-25T20:33:03;6.55;;;2.10;;
51618;SDS011;38518;53.164;5.430;2023-04-25T20:35:31;10.90;;;2.38;;
51618;SDS011;38518;53.164;5.430;2023-04-25T20:37:57;9.90;;;2.72;;
51618;SDS011;38518;53.164;5.430;2023-04-25T20:40:23;9.45;;;2.30;;
51618;SDS011;38518;53.164;5.430;2023-04-25T20:42:48;10.23;;;2.10;;
51618;SDS011;38518;53.164;5.430;2023-04-25T20:45:15;8.23;;;2.80;;
51618;SDS011;38518;53.164;5.430;2023-04-25T20:47:41;9.30;;;2.60;;
51618;SDS011;38518;53.164;5.430;2023-04-25T20:50:08;7.07;;;2.20;;
51618;SDS011;38518;53.164;5.430;2023-04-25T20:52:37;6.45;;;2.38;;
51618;SDS011;38518;53.164;5.430;2023-04-25T20:55:04;8.55;;;2.47;;
51618;SDS011;38518;53.164;5.430;2023-04-25T20:57:33;9.13;;;2.50;;
51618;SDS011;38518;53.164;5.430;2023-04-25T21:00:02;9.93;;;2.88;;
51618;SDS011;38518;53.164;5.430;2023-04-25T21:02:30;8.68;;;2.70;;
51618;SDS011;38518;53.164;5.430;2023-04-25T21:04:56;9.70;;;2.30;;
51618;SDS011;38518;53.164;5.430;2023-04-25T21:07:22;10.27;;;3.22;;
51618;SDS011;38518;53.164;5.430;2023-04-25T21:09:48;7.55;;;2.75;;
51618;SDS011;38518;53.164;5.430;2023-04-25T21:12:13;9.48;;;2.35;;
51618;SDS011;38518;53.164;5.430;2023-04-25T21:14:39;8.88;;;2.47;;
51618;SDS011;38518;53.164;5.430;2023-04-25T21:17:05;10.02;;;2.60;;
51618;SDS011;38518;53.164;5.430;2023-04-25T21:19:30;10.07;;;2.58;;
51618;SDS011;38518;53.164;5.430;2023-04-25T21:21:57;5.85;;;2.55;;
51618;SDS011;38518;53.164;5.430;2023-04-25T21:24:23;8.70;;;2.40;;
51618;SDS011;38518;53.164;5.430;2023-04-25T21:26:54;6.25;;;1.92;;
51618;SDS011;38518;53.164;5.430;2023-04-25T21:29:22;7.72;;;2.30;;
51618;SDS011;38518;53.164;5.430;2023-04-25T21:31:51;8.00;;;2.05;;
51618;SDS011;38518;53.164;5.430;2023-04-25T21:34:20;8.90;;;2.17;;
51618;SDS011;38518;53.164;5.430;2023-04-25T21:36:46;7.95;;;2.00;;
51618;SDS011;38518;53.164;5.430;2023-04-25T21:39:15;8.20;;;2.13;;
51618;SDS011;38518;53.164;5.430;2023-04-25T21:41:44;9.35;;;2.22;;
51618;SDS011;38518;53.164;5.430;2023-04-25T21:44:10;8.95;;;1.80;;
51618;SDS011;38518;53.164;5.430;2023-04-25T21:46:37;10.63;;;2.85;;
51618;SDS011;38518;53.164;5.430;2023-04-25T21:49:05;3.67;;;1.60;;
51618;SDS011;38518;53.164;5.430;2023-04-25T21:51:38;8.05;;;2.40;;
51618;SDS011;38518;53.164;5.430;2023-04-25T21:54:04;5.55;;;1.80;;
51618;SDS011;38518;53.164;5.430;2023-04-25T21:56:31;10.23;;;2.35;;